sensor_id;sensor_type;location;lat;lon;timestamp;pressure;altitude;pressure_sealevel;temperature;humidity
33163;BME280;29282;45.656;11.302;2023-04-16T00:02:15;97808.16;;;18.65;45.65
33163;BME280;29282;45.656;11.302;2023-04-16T00:04:41;97803.81;;;18.64;45.39
33163;BME280;29282;45.656;11.302;2023-04-16T00:07:06;97812.84;;;18.65;45.33
33163;BME280;29282;45.656;11.302;2023-04-16T00:09:32;97799.13;;;18.65;45.50
33163;BME280;29282;45.656;11.302;2023-04-16T00:11:58;97794.75;;;18.64;45.44
33163;BME280;29282;45.656;11.302;2023-04-16T00:14:23;97788.47;;;18.63;45.47
33163;BME280;29282;45.656;11.302;2023-04-16T00:16:49;97792.38;;;18.62;45.42
33163;BME280;29282;45.656;11.302;2023-04-16T00:19:15;97795.13;;;18.62;45.43
33163;BME280;29282;45.656;11.302;2023-04-16T00:21:40;97789.63;;;18.62;45.45
33163;BME280;29282;45.656;11.302;2023-04-16T00:24:05;97788.03;;;18.61;45.30
33163;BME280;29282;45.656;11.302;2023-04-16T00:26:31;97788.03;;;18.61;45.49
33163;BME280;29282;45.656;11.302;2023-04-16T00:28:57;97788.03;;;18.61;45.53
33163;BME280;29282;45.656;11.302;2023-04-16T00:31:29;97782.56;;;18.61;45.27
33163;BME280;29282;45.656;11.302;2023-04-16T00:33:55;97782.56;;;18.61;45.40
33163;BME280;29282;45.656;11.302;2023-04-16T00:36:25;97782.56;;;18.61;45.68
33163;BME280;29282;45.656;11.302;2023-04-16T00:38:51;97780.59;;;18.62;45.37
33163;BME280;29282;45.656;11.302;2023-04-16T00:41:17;97778.66;;;18.62;45.42
33163;BME280;29282;45.656;11.302;2023-04-16T00:43:43;97780.59;;;18.62;45.36
33163;BME280;29282;45.656;11.302;2023-04-16T00:46:09;97783.34;;;18.62;45.31
33163;BME280;29282;45.656;11.302;2023-04-16T00:48:35;97782.56;;;18.61;45.30
33163;BME280;29282;45.656;11.302;2023-04-16T00:51:06;97776.25;;;18.61;45.24
33163;BME280;29282;45.656;11.302;2023-04-16T00:53:32;97784.47;;;18.61;45.21
33163;BME280;29282;45.656;11.302;2023-04-16T00:55:58;97779.34;;;18.59;45.22
33163;BME280;29282;45.656;11.302;2023-04-16T00:58:25;97782.09;;;18.59;45.33
33163;BME280;29282;45.656;11.302;2023-04-16T01:00:50;97784.84;;;18.59;45.27
33163;BME280;29282;45.656;11.302;2023-04-16T01:03:16;97791.47;;;18.58;45.34
33163;BME280;29282;45.656;11.302;2023-04-16T01:05:42;97784.84;;;18.59;45.25
33163;BME280;29282;45.656;11.302;2023-04-16T01:08:17;97796.19;;;18.58;45.14
33163;BME280;29282;45.656;11.302;2023-04-16T01:10:43;97790.69;;;18.58;45.26
33163;BME280;29282;45.656;11.302;2023-04-16T01:13:09;97797.31;;;18.57;45.21
33163;BME280;29282;45.656;11.302;2023-04-16T01:15:35;97802.00;;;18.56;45.21
33163;BME280;29282;45.656;11.302;2023-04-16T01:18:01;97789.44;;;18.55;45.16
33163;BME280;29282;45.656;11.302;2023-04-16T01:20:26;97797.66;;;18.55;45.21
33163;BME280;29282;45.656;11.302;2023-04-16T01:22:52;97799.59;;;18.54;45.33
33163;BME280;29282;45.656;11.302;2023-04-16T01:25:17;97794.13;;;18.54;45.29
33163;BME280;29282;45.656;11.302;2023-04-16T01:27:43;97805.88;;;18.55;45.32
33163;BME280;29282;45.656;11.302;2023-04-16T01:30:08;97804.28;;;18.54;45.17
33163;BME280;29282;45.656;11.302;2023-04-16T01:32:34;97804.72;;;18.56;45.24
33163;BME280;29282;45.656;11.302;2023-04-16T01:34:59;97800.41;;;18.55;45.13
33163;BME280;29282;45.656;11.302;2023-04-16T01:37:25;97801.53;;;18.54;45.42
33163;BME280;29282;45.656;11.302;2023-04-16T01:39:51;97796.03;;;18.54;45.27
33163;BME280;29282;45.656;11.302;2023-04-16T01:42:16;97805.88;;;18.55;45.10
33163;BME280;29282;45.656;11.302;2023-04-16T01:44:41;97806.69;;;18.55;45.15
33163;BME280;29282;45.656;11.302;2023-04-16T01:47:07;97807.47;;;18.56;45.15
33163;BME280;29282;45.656;11.302;2023-04-16T01:49:33;97811.00;;;18.57;45.21
33163;BME280;29282;45.656;11.302;2023-04-16T01:51:58;97811.00;;;18.57;45.26
33163;BME280;29282;45.656;11.302;2023-04-16T01:54:24;97815.38;;;18.58;45.12
33163;BME280;29282;45.656;11.302;2023-04-16T01:56:50;97809.06;;;18.57;45.10
33163;BME280;29282;45.656;11.302;2023-04-16T01:59:15;97812.97;;;18.56;45.06
33163;BME280;29282;45.656;11.302;2023-04-16T02:01:41;97811.47;;;18.59;44.98
33163;BME280;29282;45.656;11.302;2023-04-16T02:04:07;97808.28;;;18.57;45.13
33163;BME280;29282;45.656;11.302;2023-04-16T02:06:33;97811.47;;;18.59;45.03
33163;BME280;29282;45.656;11.302;2023-04-16T02:08:58;97809.06;;;18.57;44.97
33163;BME280;29282;45.656;11.302;2023-04-16T02:11:24;97808.28;;;18.57;45.07
33163;BME280;29282;45.656;11.302;2023-04-16T02:13:49;97802.00;;;18.56;45.05
33163;BME280;29282;45.656;11.302;2023-04-16T02:16:15;97799.25;;;18.56;45.01
33163;BME280;29282;45.656;11.302;2023-04-16T02:18:41;97806.31;;;18.57;44.96
33163;BME280;29282;45.656;11.302;2023-04-16T02:21:06;97802.78;;;18.57;45.09
33163;BME280;29282;45.656;11.302;2023-04-16T02:23:32;97802.00;;;18.56;45.06
33163;BME280;29282;45.656;11.302;2023-04-16T02:25:57;97799.59;;;18.54;45.06
33163;BME280;29282;45.656;11.302;2023-04-16T02:28:23;97795.72;;;18.55;44.93
33163;BME280;29282;45.656;11.302;2023-04-16T02:30:48;97794.91;;;18.55;45.13
33163;BME280;29282;45.656;11.302;2023-04-16T02:33:13;97801.19;;;18.55;44.93
33163;BME280;29282;45.656;11.302;2023-04-16T02:35:39;97795.34;;;18.57;44.98
33163;BME280;29282;45.656;11.302;2023-04-16T02:38:06;97798.44;;;18.55;44.89
33163;BME280;29282;45.656;11.302;2023-04-16T02:40:32;97804.41;;;18.58;45.00
33163;BME280;29282;45.656;11.302;2023-04-16T02:42:57;97796.50;;;18.56;44.86
33163;BME280;29282;45.656;11.302;2023-04-16T02:45:23;97806.00;;;18.59;44.91
33163;BME280;29282;45.656;11.302;2023-04-16T02:47:49;97805.19;;;18.58;44.81
33163;BME280;29282;45.656;11.302;2023-04-16T02:50:15;97803.56;;;18.57;44.84
33163;BME280;29282;45.656;11.302;2023-04-16T02:52:41;97806.78;;;18.59;44.81
33163;BME280;29282;45.656;11.302;2023-04-16T02:55:07;97804.03;;;18.59;44.73
33163;BME280;29282;45.656;11.302;2023-04-16T02:57:33;97805.19;;;18.58;44.92
33163;BME280;29282;45.656;11.302;2023-04-16T02:59:59;97807.94;;;18.58;44.79
33163;BME280;29282;45.656;11.302;2023-04-16T03:02:25;97810.22;;;18.56;44.89
33163;BME280;29282;45.656;11.302;2023-04-16T03:04:52;97809.06;;;18.57;44.86
33163;BME280;29282;45.656;11.302;2023-04-16T03:07:18;97819.25;;;18.57;44.76
33163;BME280;29282;45.656;11.302;2023-04-16T03:09:44;97814.56;;;18.57;44.81
33163;BME280;29282;45.656;11.302;2023-04-16T03:12:09;97812.97;;;18.56;44.89
33163;BME280;29282;45.656;11.302;2023-04-16T03:14:35;97821.19;;;18.56;44.90
33163;BME280;29282;45.656;11.302;2023-04-16T03:17:00;97820.41;;;18.55;44.85
33163;BME280;29282;45.656;11.302;2023-04-16T03:19:26;97822.34;;;18.55;44.88
33163;BME280;29282;45.656;11.302;2023-04-16T03:21:51;97819.59;;;18.55;44.89
33163;BME280;29282;45.656;11.302;2023-04-16T03:24:17;97823.94;;;18.56;44.89
33163;BME280;29282;45.656;11.302;2023-04-16T03:26:42;97824.41;;;18.58;44.73
33163;BME280;29282;45.656;11.302;2023-04-16T03:29:08;97828.63;;;18.55;44.86
33163;BME280;29282;45.656;11.302;2023-04-16T03:31:33;97835.38;;;18.58;44.75
33163;BME280;29282;45.656;11.302;2023-04-16T03:33:59;97834.91;;;18.56;44.88
33163;BME280;29282;45.656;11.302;2023-04-16T03:36:24;97841.19;;;18.57;44.79
33163;BME280;29282;45.656;11.302;2023-04-16T03:38:51;97834.13;;;18.55;44.65
33163;BME280;29282;45.656;11.302;2023-04-16T03:41:17;97836.88;;;18.55;44.74
33163;BME280;29282;45.656;11.302;2023-04-16T03:43:42;97836.88;;;18.55;44.65
33163;BME280;29282;45.656;11.302;2023-04-16T03:46:08;97844.28;;;18.55;44.69
33163;BME280;29282;45.656;11.302;2023-04-16T03:48:33;97848.16;;;18.54;44.62
33163;BME280;29282;45.656;11.302;2023-04-16T03:50:59;97853.66;;;18.54;44.83
33163;BME280;29282;45.656;11.302;2023-04-16T03:53:24;97850.13;;;18.53;44.96
33163;BME280;29282;45.656;11.302;2023-04-16T03:55:50;97859.13;;;18.54;44.83
33163;BME280;29282;45.656;11.302;2023-04-16T03:58:17;97866.56;;;18.53;44.81
33163;BME280;29282;45.656;11.302;2023-04-16T04:00:42;97865.78;;;18.53;44.62
33163;BME280;29282;45.656;11.302;2023-04-16T04:03:11;97870.94;;;18.54;44.63
33163;BME280;29282;45.656;11.302;2023-04-16T04:05:41;97866.56;;;18.53;44.63
33163;BME280;29282;45.656;11.302;2023-04-16T04:08:08;97874.00;;;18.53;44.79
33163;BME280;29282;45.656;11.302;2023-04-16T04:10:34;97878.00;;;18.55;44.71
33163;BME280;29282;45.656;11.302;2023-04-16T04:13:02;97878.34;;;18.54;44.69
33163;BME280;29282;45.656;11.302;2023-04-16T04:15:27;97877.56;;;18.53;44.62
33163;BME280;29282;45.656;11.302;2023-04-16T04:17:53;97882.72;;;18.55;44.54
33163;BME280;29282;45.656;11.302;2023-04-16T04:20:18;97882.72;;;18.55;44.51
33163;BME280;29282;45.656;11.302;2023-04-16T04:22:44;97881.09;;;18.54;44.51
33163;BME280;29282;45.656;11.302;2023-04-16T04:25:10;97881.44;;;18.52;44.56
33163;BME280;29282;45.656;11.302;2023-04-16T04:27:36;97878.34;;;18.54;44.60
33163;BME280;29282;45.656;11.302;2023-04-16T04:30:02;97884.97;;;18.53;44.48
33163;BME280;29282;45.656;11.302;2023-04-16T04:32:30;97881.09;;;18.54;44.47
33163;BME280;29282;45.656;11.302;2023-04-16T04:34:58;97887.72;;;18.53;44.69
33163;BME280;29282;45.656;11.302;2023-04-16T04:37:24;97884.97;;;18.53;44.60
33163;BME280;29282;45.656;11.302;2023-04-16T04:39:49;97885.78;;;18.53;44.54
33163;BME280;29282;45.656;11.302;2023-04-16T04:42:16;97895.97;;;18.53;44.50
33163;BME280;29282;45.656;11.302;2023-04-16T04:44:42;97892.41;;;18.52;44.56
33163;BME280;29282;45.656;11.302;2023-04-16T04:47:08;97897.91;;;18.52;44.49
33163;BME280;29282;45.656;11.302;2023-04-16T04:49:34;97906.94;;;18.53;44.46
33163;BME280;29282;45.656;11.302;2023-04-16T04:51:59;97907.72;;;18.53;44.43
33163;BME280;29282;45.656;11.302;2023-04-16T04:54:26;97909.34;;;18.54;44.49
33163;BME280;29282;45.656;11.302;2023-04-16T04:56:52;97909.69;;;18.53;44.46
33163;BME280;29282;45.656;11.302;2023-04-16T04:59:22;97914.84;;;18.54;44.44
33163;BME280;29282;45.656;11.302;2023-04-16T05:01:48;97917.22;;;18.56;44.41
33163;BME280;29282;45.656;11.302;2023-04-16T05:04:13;97917.56;;;18.54;44.34
33163;BME280;29282;45.656;11.302;2023-04-16T05:06:39;97922.25;;;18.54;44.56
33163;BME280;29282;45.656;11.302;2023-04-16T05:09:04;97926.13;;;18.53;44.58
33163;BME280;29282;45.656;11.302;2023-04-16T05:11:32;97928.09;;;18.52;44.56
33163;BME280;29282;45.656;11.302;2023-04-16T05:13:58;97936.31;;;18.52;44.46
33163;BME280;29282;45.656;11.302;2023-04-16T05:16:23;97937.09;;;18.53;44.53
33163;BME280;29282;45.656;11.302;2023-04-16T05:18:49;97937.91;;;18.53;44.70
33163;BME280;29282;45.656;11.302;2023-04-16T05:21:14;97932.78;;;18.52;44.74
33163;BME280;29282;45.656;11.302;2023-04-16T05:23:40;97950.81;;;18.53;44.70
33163;BME280;29282;45.656;11.302;2023-04-16T05:26:06;97952.41;;;18.54;44.75
33163;BME280;29282;45.656;11.302;2023-04-16T05:28:31;97957.56;;;18.55;44.66
33163;BME280;29282;45.656;11.302;2023-04-16T05:30:57;97966.59;;;18.56;44.85
33163;BME280;29282;45.656;11.302;2023-04-16T05:33:22;97974.94;;;18.60;44.68
33163;BME280;29282;45.656;11.302;2023-04-16T05:35:47;97974.63;;;18.61;44.82
33163;BME280;29282;45.656;11.302;2023-04-16T05:38:13;97973.09;;;18.64;44.81
33163;BME280;29282;45.656;11.302;2023-04-16T05:40:38;97973.09;;;18.64;44.71
33163;BME280;29282;45.656;11.302;2023-04-16T05:43:04;97983.41;;;18.67;44.76
33163;BME280;29282;45.656;11.302;2023-04-16T05:45:30;97983.41;;;18.67;44.72
33163;BME280;29282;45.656;11.302;2023-04-16T05:47:57;97985.03;;;18.68;44.95
33163;BME280;29282;45.656;11.302;2023-04-16T05:50:23;97985.13;;;18.71;44.73
33163;BME280;29282;45.656;11.302;2023-04-16T05:52:48;97985.97;;;18.72;44.88
33163;BME280;29282;45.656;11.302;2023-04-16T05:55:14;97984.00;;;18.72;44.68
33163;BME280;29282;45.656;11.302;2023-04-16T05:57:39;97987.22;;;18.74;44.77
33163;BME280;29282;45.656;11.302;2023-04-16T06:00:05;97983.78;;;18.77;44.88
33163;BME280;29282;45.656;11.302;2023-04-16T06:02:32;97987.44;;;18.82;44.60
33163;BME280;29282;45.656;11.302;2023-04-16T06:04:57;97988.81;;;18.88;44.55
33163;BME280;29282;45.656;11.302;2023-04-16T06:07:23;97988.81;;;18.88;44.52
33163;BME280;29282;45.656;11.302;2023-04-16T06:09:49;97983.75;;;18.90;44.65
33163;BME280;29282;45.656;11.302;2023-04-16T06:12:15;97989.59;;;18.88;44.57
33163;BME280;29282;45.656;11.302;2023-04-16T06:14:40;97987.56;;;18.85;44.80
33163;BME280;29282;45.656;11.302;2023-04-16T06:17:06;97999.31;;;18.86;44.85
33163;BME280;29282;45.656;11.302;2023-04-16T06:19:31;97989.03;;;18.83;44.80
33163;BME280;29282;45.656;11.302;2023-04-16T06:21:57;97990.28;;;18.85;44.78
33163;BME280;29282;45.656;11.302;2023-04-16T06:24:22;97989.59;;;18.88;44.83
33163;BME280;29282;45.656;11.302;2023-04-16T06:26:48;97994.75;;;18.90;44.84
33163;BME280;29282;45.656;11.302;2023-04-16T06:29:14;97994.31;;;18.88;44.93
33163;BME280;29282;45.656;11.302;2023-04-16T06:31:39;97991.56;;;18.88;44.94
33163;BME280;29282;45.656;11.302;2023-04-16T06:34:05;97992.69;;;18.87;44.92
33163;BME280;29282;45.656;11.302;2023-04-16T06:36:31;97995.44;;;18.87;44.71
33163;BME280;29282;45.656;11.302;2023-04-16T06:38:56;98001.50;;;18.92;44.53
33163;BME280;29282;45.656;11.302;2023-04-16T06:41:22;97990.72;;;18.99;44.75
33163;BME280;29282;45.656;11.302;2023-04-16T06:43:50;97996.31;;;19.03;44.49
33163;BME280;29282;45.656;11.302;2023-04-16T06:46:15;97988.75;;;19.12;44.24
33163;BME280;29282;45.656;11.302;2023-04-16T06:48:41;97986.69;;;19.21;44.07
33163;BME280;29282;45.656;11.302;2023-04-16T06:51:06;97994.00;;;19.30;43.83
33163;BME280;29282;45.656;11.302;2023-04-16T06:53:32;97988.16;;;19.31;43.84
33163;BME280;29282;45.656;11.302;2023-04-16T06:55:58;97990.41;;;19.41;43.71
33163;BME280;29282;45.656;11.302;2023-04-16T06:58:23;97992.09;;;19.46;43.50
33163;BME280;29282;45.656;11.302;2023-04-16T07:00:49;97991.88;;;19.51;43.50
33163;BME280;29282;45.656;11.302;2023-04-16T07:03:14;97986.47;;;19.55;43.50
33163;BME280;29282;45.656;11.302;2023-04-16T07:05:40;97997.91;;;19.57;43.38
33163;BME280;29282;45.656;11.302;2023-04-16T07:08:05;97999.44;;;19.54;43.47
33163;BME280;29282;45.656;11.302;2023-04-16T07:10:31;97995.06;;;19.53;43.62
33163;BME280;29282;45.656;11.302;2023-04-16T07:12:57;97998.28;;;19.55;43.52
33163;BME280;29282;45.656;11.302;2023-04-16T07:15:22;98001.13;;;19.59;43.47
33163;BME280;29282;45.656;11.302;2023-04-16T07:17:48;98009.44;;;19.75;43.09
33163;BME280;29282;45.656;11.302;2023-04-16T07:20:13;97995.19;;;19.85;42.84
33163;BME280;29282;45.656;11.302;2023-04-16T07:22:39;97993.28;;;20.01;42.46
33163;BME280;29282;45.656;11.302;2023-04-16T07:25:04;97994.72;;;20.11;42.35
33163;BME280;29282;45.656;11.302;2023-04-16T07:27:30;97998.03;;;20.16;42.33
33163;BME280;29282;45.656;11.302;2023-04-16T07:29:55;98002.78;;;20.19;42.28
33163;BME280;29282;45.656;11.302;2023-04-16T07:32:21;98001.28;;;20.22;42.24
33163;BME280;29282;45.656;11.302;2023-04-16T07:34:47;97992.25;;;20.22;42.21
33163;BME280;29282;45.656;11.302;2023-04-16T07:37:12;97997.03;;;20.25;42.30
33163;BME280;29282;45.656;11.302;2023-04-16T07:39:38;97995.97;;;20.29;42.17
33163;BME280;29282;45.656;11.302;2023-04-16T07:42:03;97995.19;;;20.29;42.16
33163;BME280;29282;45.656;11.302;2023-04-16T07:44:29;98000.78;;;20.32;42.19
33163;BME280;29282;45.656;11.302;2023-04-16T07:46:54;97999.19;;;20.31;42.20
33163;BME280;29282;45.656;11.302;2023-04-16T07:49:20;97998.00;;;20.32;42.20
33163;BME280;29282;45.656;11.302;2023-04-16T07:51:46;98001.13;;;20.31;42.22
33163;BME280;29282;45.656;11.302;2023-04-16T07:54:11;98004.69;;;20.31;42.32
33163;BME280;29282;45.656;11.302;2023-04-16T07:56:37;98005.13;;;20.33;42.22
33163;BME280;29282;45.656;11.302;2023-04-16T07:59:02;98003.88;;;20.31;42.52
33163;BME280;29282;45.656;11.302;2023-04-16T08:01:28;98001.47;;;20.29;42.51
33163;BME280;29282;45.656;11.302;2023-04-16T08:03:53;98004.69;;;20.31;42.44
33163;BME280;29282;45.656;11.302;2023-04-16T08:06:19;98007.44;;;20.31;42.36
33163;BME280;29282;45.656;11.302;2023-04-16T08:08:44;98015.78;;;20.35;42.29
33163;BME280;29282;45.656;11.302;2023-04-16T08:11:10;98007.88;;;20.33;42.38
33163;BME280;29282;45.656;11.302;2023-04-16T08:13:35;98005.06;;;20.30;42.70
33163;BME280;29282;45.656;11.302;2023-04-16T08:16:01;98003.19;;;20.34;42.44
33163;BME280;29282;45.656;11.302;2023-04-16T08:18:26;98010.28;;;20.35;42.25
33163;BME280;29282;45.656;11.302;2023-04-16T08:20:52;98013.38;;;20.33;42.49
33163;BME280;29282;45.656;11.302;2023-04-16T08:23:17;98014.09;;;20.30;42.57
33163;BME280;29282;45.656;11.302;2023-04-16T08:25:43;98016.06;;;20.30;42.48
33163;BME280;29282;45.656;11.302;2023-04-16T08:28:08;98016.47;;;20.32;42.57
33163;BME280;29282;45.656;11.302;2023-04-16T08:30:34;98017.66;;;20.31;42.70
33163;BME280;29282;45.656;11.302;2023-04-16T08:32:59;98020.41;;;20.31;42.51
33163;BME280;29282;45.656;11.302;2023-04-16T08:35:26;98022.69;;;20.29;42.67
33163;BME280;29282;45.656;11.302;2023-04-16T08:37:51;98025.91;;;20.31;42.77
33163;BME280;29282;45.656;11.302;2023-04-16T08:40:18;98027.06;;;20.30;42.50
33163;BME280;29282;45.656;11.302;2023-04-16T08:43:02;98024.31;;;20.30;42.68
33163;BME280;29282;45.656;11.302;2023-04-16T08:45:32;98022.34;;;20.30;42.56
33163;BME280;29282;45.656;11.302;2023-04-16T08:47:59;98021.91;;;20.28;42.91
33163;BME280;29282;45.656;11.302;2023-04-16T08:50:26;98017.97;;;20.29;42.70
33163;BME280;29282;45.656;11.302;2023-04-16T08:52:57;98022.69;;;20.29;42.82
33163;BME280;29282;45.656;11.302;2023-04-16T08:55:34;98025.00;;;20.27;42.77
33163;BME280;29282;45.656;11.302;2023-04-16T08:58:05;98025.00;;;20.27;42.93
33163;BME280;29282;45.656;11.302;2023-04-16T09:00:33;98029.69;;;20.26;42.83
33163;BME280;29282;45.656;11.302;2023-04-16T09:02:59;98039.91;;;20.26;43.06
33163;BME280;29282;45.656;11.302;2023-04-16T09:05:26;98028.91;;;20.26;42.81
33163;BME280;29282;45.656;11.302;2023-04-16T09:07:53;98033.97;;;20.24;42.97
33163;BME280;29282;45.656;11.302;2023-04-16T09:10:19;98027.66;;;20.23;43.00
33163;BME280;29282;45.656;11.302;2023-04-16T09:12:45;98028.00;;;20.22;42.92
33163;BME280;29282;45.656;11.302;2023-04-16T09:15:11;98031.56;;;20.22;43.26
33163;BME280;29282;45.656;11.302;2023-04-16T09:17:38;98035.09;;;20.23;43.06
33163;BME280;29282;45.656;11.302;2023-04-16T09:20:05;98027.22;;;20.21;43.10
33163;BME280;29282;45.656;11.302;2023-04-16T09:22:33;98028.81;;;20.22;43.21
33163;BME280;29282;45.656;11.302;2023-04-16T09:24:59;98032.72;;;20.21;43.06
33163;BME280;29282;45.656;11.302;2023-04-16T09:27:24;98031.91;;;20.21;43.18
33163;BME280;29282;45.656;11.302;2023-04-16T09:29:50;98033.88;;;20.20;43.08
33163;BME280;29282;45.656;11.302;2023-04-16T09:32:15;98031.56;;;20.22;43.11
33163;BME280;29282;45.656;11.302;2023-04-16T09:34:58;98030.75;;;20.22;42.99
33163;BME280;29282;45.656;11.302;2023-04-16T09:37:28;98029.16;;;20.21;43.25
33163;BME280;29282;45.656;11.302;2023-04-16T09:39:56;98030.75;;;20.22;43.27
33163;BME280;29282;45.656;11.302;2023-04-16T09:42:26;98032.72;;;20.21;43.20
33163;BME280;29282;45.656;11.302;2023-04-16T09:44:53;98021.72;;;20.21;43.35
33163;BME280;29282;45.656;11.302;2023-04-16T09:47:19;98026.06;;;20.22;43.15
33163;BME280;29282;45.656;11.302;2023-04-16T09:49:45;98024.09;;;20.23;43.26
33163;BME280;29282;45.656;11.302;2023-04-16T09:52:21;98018.59;;;20.23;43.25
33163;BME280;29282;45.656;11.302;2023-04-16T09:54:50;98012.28;;;20.22;43.27
33163;BME280;29282;45.656;11.302;2023-04-16T09:57:23;98022.97;;;20.24;43.19
33163;BME280;29282;45.656;11.302;2023-04-16T09:59:54;98017.78;;;20.22;43.31
33163;BME280;29282;45.656;11.302;2023-04-16T10:02:26;98011.50;;;20.22;43.22
33163;BME280;29282;45.656;11.302;2023-04-16T10:04:52;98024.47;;;20.21;43.27
33163;BME280;29282;45.656;11.302;2023-04-16T10:07:18;98010.72;;;20.21;43.40
33163;BME280;29282;45.656;11.302;2023-04-16T10:09:48;98009.13;;;20.20;43.41
33163;BME280;29282;45.656;11.302;2023-04-16T10:12:14;98015.03;;;20.22;43.39
33163;BME280;29282;45.656;11.302;2023-04-16T10:14:41;98007.59;;;20.23;43.31
33163;BME280;29282;45.656;11.302;2023-04-16T10:17:07;98009.91;;;20.21;43.31
33163;BME280;29282;45.656;11.302;2023-04-16T10:19:34;98003.72;;;20.24;43.24
33163;BME280;29282;45.656;11.302;2023-04-16T10:22:00;98007.59;;;20.23;43.32
33163;BME280;29282;45.656;11.302;2023-04-16T10:24:30;98008.75;;;20.22;43.29
33163;BME280;29282;45.656;11.302;2023-04-16T10:26:57;98009.22;;;20.24;43.40
33163;BME280;29282;45.656;11.302;2023-04-16T10:29:24;98002.91;;;20.23;43.45
33163;BME280;29282;45.656;11.302;2023-04-16T10:31:52;97996.25;;;20.24;43.51
33163;BME280;29282;45.656;11.302;2023-04-16T10:34:19;98012.38;;;20.26;43.31
33163;BME280;29282;45.656;11.302;2023-04-16T10:36:50;98000.16;;;20.23;43.46
33163;BME280;29282;45.656;11.302;2023-04-16T10:39:19;97994.66;;;20.23;43.42
33163;BME280;29282;45.656;11.302;2023-04-16T10:41:45;97994.22;;;20.21;43.48
33163;BME280;29282;45.656;11.302;2023-04-16T10:44:11;97995.78;;;20.22;43.48
33163;BME280;29282;45.656;11.302;2023-04-16T10:46:37;97982.84;;;20.23;43.52
33163;BME280;29282;45.656;11.302;2023-04-16T10:49:22;97991.09;;;20.23;43.47
33163;BME280;29282;45.656;11.302;2023-04-16T10:51:54;97988.69;;;20.21;43.67
33163;BME280;29282;45.656;11.302;2023-04-16T10:54:23;97985.59;;;20.23;43.45
33163;BME280;29282;45.656;11.302;2023-04-16T10:56:50;97983.53;;;20.19;43.53
33163;BME280;29282;45.656;11.302;2023-04-16T10:59:20;97990.66;;;20.21;43.54
33163;BME280;29282;45.656;11.302;2023-04-16T11:01:52;97986.75;;;20.22;43.64
33163;BME280;29282;45.656;11.302;2023-04-16T11:12:31;97972.66;;;20.23;43.48
33163;BME280;29282;45.656;11.302;2023-04-16T11:15:08;97978.50;;;20.22;43.37
33163;BME280;29282;45.656;11.302;2023-04-16T11:20:02;97978.16;;;20.23;43.61
33163;BME280;29282;45.656;11.302;2023-04-16T11:22:29;97973.00;;;20.22;43.51
33163;BME280;29282;45.656;11.302;2023-04-16T11:24:56;97960.81;;;20.23;43.55
33163;BME280;29282;45.656;11.302;2023-04-16T11:27:24;97962.06;;;20.25;43.56
33163;BME280;29282;45.656;11.302;2023-04-16T11:30:00;97968.28;;;20.22;43.61
33163;BME280;29282;45.656;11.302;2023-04-16T11:32:27;97969.53;;;20.25;43.51
33163;BME280;29282;45.656;11.302;2023-04-16T11:34:55;97963.25;;;20.24;43.60
33163;BME280;29282;45.656;11.302;2023-04-16T11:37:35;97964.81;;;20.25;43.68
33163;BME280;29282;45.656;11.302;2023-04-16T11:40:02;97962.06;;;20.25;43.71
33163;BME280;29282;45.656;11.302;2023-04-16T11:42:52;97964.03;;;20.25;43.58
33163;BME280;29282;45.656;11.302;2023-04-16T11:45:17;97960.13;;;20.26;43.74
33163;BME280;29282;45.656;11.302;2023-04-16T11:47:47;97960.13;;;20.26;43.84
33163;BME280;29282;45.656;11.302;2023-04-16T11:52:46;97958.53;;;20.25;43.67
33163;BME280;29282;45.656;11.302;2023-04-16T11:55:11;97954.97;;;20.24;43.76
33163;BME280;29282;45.656;11.302;2023-04-16T11:57:37;97947.53;;;20.25;43.71
33163;BME280;29282;45.656;11.302;2023-04-16T12:00:03;97945.56;;;20.25;43.66
33163;BME280;29282;45.656;11.302;2023-04-16T12:02:42;97953.47;;;20.27;43.50
33163;BME280;29282;45.656;11.302;2023-04-16T12:05:33;97948.78;;;20.27;43.75
33163;BME280;29282;45.656;11.302;2023-04-16T12:08:04;97946.81;;;20.28;43.63
33163;BME280;29282;45.656;11.302;2023-04-16T12:10:35;97949.19;;;20.29;43.66
33163;BME280;29282;45.656;11.302;2023-04-16T12:13:14;97948.41;;;20.29;43.64
33163;BME280;29282;45.656;11.302;2023-04-16T12:18:13;97952.31;;;20.28;43.75
33163;BME280;29282;45.656;11.302;2023-04-16T12:20:40;97948.06;;;20.30;43.81
33163;BME280;29282;45.656;11.302;2023-04-16T12:23:06;97938.19;;;20.29;43.74
33163;BME280;29282;45.656;11.302;2023-04-16T12:25:32;97947.28;;;20.30;43.75
33163;BME280;29282;45.656;11.302;2023-04-16T12:27:58;97945.66;;;20.29;43.76
33163;BME280;29282;45.656;11.302;2023-04-16T12:30:25;97942.56;;;20.30;43.76
33163;BME280;29282;45.656;11.302;2023-04-16T12:32:53;97941.41;;;20.31;43.75
33163;BME280;29282;45.656;11.302;2023-04-16T12:35:37;97942.56;;;20.30;43.78
33163;BME280;29282;45.656;11.302;2023-04-16T12:38:02;97946.13;;;20.31;43.73
33163;BME280;29282;45.656;11.302;2023-04-16T12:40:28;97941.03;;;20.33;43.71
33163;BME280;29282;45.656;11.302;2023-04-16T12:42:54;97936.34;;;20.33;43.81
33163;BME280;29282;45.656;11.302;2023-04-16T12:45:20;97943.38;;;20.31;43.73
33163;BME280;29282;45.656;11.302;2023-04-16T12:47:46;97941.16;;;20.36;43.83
33163;BME280;29282;45.656;11.302;2023-04-16T12:50:12;97941.84;;;20.33;43.82
33163;BME280;29282;45.656;11.302;2023-04-16T12:52:37;97934.03;;;20.35;43.79
33163;BME280;29282;45.656;11.302;2023-04-16T12:55:03;97942.66;;;20.34;43.73
33163;BME280;29282;45.656;11.302;2023-04-16T12:57:28;97936.69;;;20.32;43.87
33163;BME280;29282;45.656;11.302;2023-04-16T12:59:55;97936.00;;;20.35;43.69
33163;BME280;29282;45.656;11.302;2023-04-16T13:02:21;97933.22;;;20.35;43.78
33163;BME280;29282;45.656;11.302;2023-04-16T13:04:47;97927.41;;;20.36;43.67